createdAt,value
2017-11-07T00:02:07.695Z,92.40
2017-11-07T00:04:35.870Z,92.50
2017-11-07T00:07:04.023Z,92.40
2017-11-07T00:09:32.557Z,92.20
2017-11-07T00:12:01.560Z,92.00
2017-11-07T00:14:30.496Z,91.90
2017-11-07T00:16:58.905Z,91.50
2017-11-07T00:19:27.063Z,91.50
2017-11-07T00:21:55.206Z,91.50
2017-11-07T00:24:23.371Z,91.50
2017-11-07T00:26:51.536Z,91.60
2017-11-07T00:29:19.693Z,91.60
2017-11-07T00:31:48.231Z,91.70
2017-11-07T00:34:17.146Z,91.70
2017-11-07T00:36:45.287Z,91.70
2017-11-07T00:39:13.479Z,91.90
2017-11-07T00:41:41.733Z,92.10
2017-11-07T00:44:09.906Z,92.20
2017-11-07T00:46:38.187Z,92.40
2017-11-07T00:49:06.336Z,92.40
2017-11-07T00:51:34.535Z,92.70
2017-11-07T00:54:02.687Z,92.80
2017-11-07T00:56:30.839Z,92.90
2017-11-07T00:58:59.824Z,93.00
2017-11-07T01:01:28.770Z,93.20
2017-11-07T01:03:56.939Z,93.20
2017-11-07T01:06:25.112Z,93.20
2017-11-07T01:08:53.264Z,93.20
2017-11-07T01:11:21.465Z,93.20
2017-11-07T01:13:49.619Z,93.00
2017-11-07T01:16:17.811Z,93.00
2017-11-07T01:18:46.571Z,92.90
2017-11-07T01:21:14.752Z,92.80
2017-11-07T01:23:42.908Z,92.80
2017-11-07T01:26:11.078Z,92.90
2017-11-07T01:28:39.225Z,92.60
2017-11-07T01:31:08.159Z,92.70
2017-11-07T01:33:36.306Z,92.80
2017-11-07T01:36:04.451Z,92.60
2017-11-07T01:38:33.387Z,92.40
2017-11-07T01:41:01.535Z,92.40
2017-11-07T01:43:30.706Z,92.50
2017-11-07T01:45:58.854Z,92.50
2017-11-07T01:48:27.014Z,92.60
2017-11-07T01:50:55.150Z,92.60
2017-11-07T01:53:24.083Z,92.60
2017-11-07T01:55:52.293Z,92.60
2017-11-07T01:58:21.232Z,92.50
2017-11-07T02:00:49.485Z,92.50
2017-11-07T02:03:17.724Z,92.50
2017-11-07T02:05:45.959Z,92.60
2017-11-07T02:08:14.124Z,92.50
2017-11-07T02:10:42.278Z,92.40
2017-11-07T02:13:10.483Z,92.40
2017-11-07T02:15:39.242Z,92.40
2017-11-07T02:18:07.445Z,92.70
2017-11-07T02:20:35.623Z,92.40
2017-11-07T02:23:03.768Z,92.40
2017-11-07T02:25:31.918Z,92.30
2017-11-07T02:28:00.836Z,92.20
2017-11-07T02:30:28.990Z,92.20
2017-11-07T02:32:57.126Z,92.20
2017-11-07T02:35:25.303Z,92.20
2017-11-07T02:37:53.427Z,92.10
2017-11-07T02:40:21.596Z,92.00
2017-11-07T02:42:49.731Z,92.00
2017-11-07T02:45:18.659Z,91.90
2017-11-07T02:47:47.019Z,91.90
2017-11-07T02:50:15.978Z,91.70
2017-11-07T02:52:44.119Z,91.70
2017-11-07T02:55:12.272Z,91.80
2017-11-07T02:57:40.437Z,91.80
2017-11-07T03:00:08.593Z,91.80
2017-11-07T03:02:37.516Z,92.00
2017-11-07T03:05:06.221Z,92.00
2017-11-07T03:07:34.587Z,92.10
2017-11-07T03:10:02.736Z,92.00
2017-11-07T03:12:30.910Z,92.10
2017-11-07T03:14:59.054Z,92.00
2017-11-07T03:17:28.101Z,92.00
2017-11-07T03:19:56.242Z,92.00
2017-11-07T03:22:24.410Z,92.00
2017-11-07T03:24:53.319Z,91.70
2017-11-07T03:27:21.487Z,91.70
2017-11-07T03:29:49.838Z,91.60
2017-11-07T03:32:18.760Z,91.80
2017-11-07T03:34:46.918Z,91.80
2017-11-07T03:37:15.064Z,91.80
2017-11-07T03:39:43.249Z,91.70
2017-11-07T03:42:12.154Z,91.80
2017-11-07T03:44:40.423Z,91.80
2017-11-07T03:47:09.639Z,91.60
2017-11-07T03:49:37.796Z,91.50
2017-11-07T03:52:06.001Z,91.00
2017-11-07T03:54:34.164Z,91.40
2017-11-07T03:57:02.298Z,91.30
2017-11-07T03:59:31.214Z,91.20
2017-11-07T04:01:59.352Z,91.20
2017-11-07T04:04:27.513Z,91.20
2017-11-07T04:06:55.658Z,91.20
2017-11-07T04:09:23.832Z,91.20
2017-11-07T04:11:52.001Z,91.20
2017-11-07T04:14:20.158Z,91.20
2017-11-07T04:16:48.891Z,91.20
2017-11-07T04:19:17.046Z,91.20
2017-11-07T04:21:45.181Z,91.20
2017-11-07T04:24:13.345Z,91.30
2017-11-07T04:26:41.497Z,91.20
2017-11-07T04:29:10.468Z,91.50
2017-11-07T04:31:38.622Z,91.20
2017-11-07T04:34:06.780Z,91.20
2017-11-07T04:36:34.937Z,91.20
2017-11-07T04:39:03.074Z,91.10
2017-11-07T04:41:32.725Z,91.30
2017-11-07T04:44:00.908Z,91.10
2017-11-07T04:46:29.068Z,91.10
2017-11-07T04:48:57.201Z,91.10
2017-11-07T04:51:26.132Z,91.10
2017-11-07T04:53:54.268Z,91.10
2017-11-07T04:56:23.182Z,91.10
2017-11-07T04:58:51.336Z,91.10
2017-11-07T05:01:20.978Z,90.70
2017-11-07T05:03:49.119Z,90.70
2017-11-07T05:06:18.142Z,90.40
2017-11-07T05:08:46.278Z,90.40
2017-11-07T05:11:15.222Z,90.30
2017-11-07T05:13:43.385Z,90.30
2017-11-07T05:16:12.704Z,90.30
2017-11-07T05:18:40.891Z,90.30
2017-11-07T05:21:09.139Z,90.40
2017-11-07T05:23:37.296Z,90.50
2017-11-07T05:26:05.441Z,90.60
2017-11-07T05:28:34.360Z,90.70
2017-11-07T05:31:02.490Z,90.70
2017-11-07T05:33:31.411Z,90.60
2017-11-07T05:35:59.557Z,90.60
2017-11-07T05:38:28.475Z,90.50
2017-11-07T05:40:56.597Z,90.50
2017-11-07T05:43:24.750Z,90.60
2017-11-07T05:45:52.884Z,90.60
2017-11-07T05:48:21.052Z,90.50
2017-11-07T05:50:49.186Z,90.50
2017-11-07T05:53:17.425Z,90.50
2017-11-07T05:55:45.607Z,90.40
2017-11-07T05:58:13.748Z,90.30
2017-11-07T06:00:41.894Z,90.30
2017-11-07T06:03:10.790Z,90.20
2017-11-07T06:05:39.719Z,90.30
2017-11-07T06:08:07.851Z,90.30
2017-11-07T06:10:36.780Z,90.20
2017-11-07T06:13:04.916Z,90.20
2017-11-07T06:15:34.355Z,90.80
2017-11-07T06:18:02.491Z,90.80
2017-11-07T06:20:31.546Z,90.70
2017-11-07T06:22:59.794Z,90.60
2017-11-07T06:25:27.971Z,90.70
2017-11-07T06:27:56.146Z,91.10
2017-11-07T06:30:24.307Z,91.10
2017-11-07T06:32:52.487Z,90.80
2017-11-07T06:35:20.776Z,90.90
2017-11-07T06:37:48.943Z,91.00
2017-11-07T06:40:17.424Z,91.20
2017-11-07T06:42:45.672Z,91.30
2017-11-07T06:45:13.812Z,91.20
2017-11-07T06:47:41.991Z,91.20
2017-11-07T06:50:10.907Z,91.30
2017-11-07T06:52:39.107Z,91.30
2017-11-07T06:55:07.322Z,91.20
2017-11-07T06:57:35.531Z,91.10
2017-11-07T07:00:03.678Z,90.90
2017-11-07T07:02:32.610Z,91.00
2017-11-07T07:05:00.765Z,91.00
2017-11-07T07:07:28.932Z,91.20
2017-11-07T07:09:57.551Z,91.10
2017-11-07T07:12:25.702Z,91.10
2017-11-07T07:14:53.855Z,91.10
2017-11-07T07:17:22.000Z,91.00
2017-11-07T07:19:50.146Z,90.90
2017-11-07T07:22:18.317Z,91.20
2017-11-07T07:24:46.466Z,91.20
2017-11-07T07:27:14.606Z,91.10
2017-11-07T07:29:43.530Z,91.00
2017-11-07T07:32:12.278Z,91.00
2017-11-07T07:34:41.221Z,90.80
2017-11-07T07:37:09.352Z,90.70
2017-11-07T07:39:38.378Z,90.70
2017-11-07T07:42:06.528Z,90.70
2017-11-07T07:44:34.737Z,90.50
2017-11-07T07:47:02.862Z,90.40
2017-11-07T07:49:31.787Z,90.40
2017-11-07T07:51:59.926Z,90.40
2017-11-07T07:54:28.851Z,90.70
2017-11-07T07:56:57.007Z,90.60
2017-11-07T07:59:25.151Z,90.70
2017-11-07T08:01:54.087Z,90.70
2017-11-07T08:04:23.142Z,90.70
2017-11-07T08:06:52.182Z,91.10
2017-11-07T08:09:20.341Z,91.10
2017-11-07T08:11:48.499Z,91.10
2017-11-07T08:14:16.660Z,91.10
2017-11-07T08:16:44.820Z,91.20
2017-11-07T08:19:13.748Z,91.20
2017-11-07T08:21:41.903Z,91.20
2017-11-07T08:24:10.049Z,91.20
2017-11-07T08:26:38.999Z,91.50
2017-11-07T08:29:08.066Z,91.50
2017-11-07T08:31:36.255Z,91.70
2017-11-07T08:34:04.402Z,91.60
2017-11-07T08:36:32.595Z,91.50
2017-11-07T08:39:00.761Z,91.50
2017-11-07T08:41:28.941Z,91.20
2017-11-07T08:43:57.112Z,90.80
2017-11-07T08:46:25.310Z,90.80
2017-11-07T08:48:53.454Z,90.50
2017-11-07T08:51:22.071Z,90.30
2017-11-07T08:53:50.229Z,89.60
2017-11-07T08:56:18.374Z,88.20
2017-11-07T08:58:46.526Z,88.70
2017-11-07T09:01:15.476Z,87.00
2017-11-07T09:03:43.626Z,86.90
2017-11-07T09:06:11.804Z,86.20
2017-11-07T09:08:40.699Z,84.20
2017-11-07T09:11:09.579Z,85.50
2017-11-07T09:13:37.745Z,82.10
2017-11-07T09:16:05.887Z,83.40
2017-11-07T09:18:34.819Z,80.30
2017-11-07T09:21:02.986Z,80.30
2017-11-07T09:23:31.168Z,81.60
2017-11-07T09:25:59.306Z,79.80
2017-11-07T09:28:27.471Z,78.40
2017-11-07T09:30:56.389Z,78.20
2017-11-07T09:33:24.547Z,78.30
2017-11-07T09:35:52.726Z,77.60
2017-11-07T09:38:20.881Z,77.40
2017-11-07T09:40:49.052Z,76.30
2017-11-07T09:43:17.967Z,74.00
2017-11-07T09:45:46.131Z,74.00
2017-11-07T09:48:14.278Z,72.20
2017-11-07T09:50:43.231Z,68.90
2017-11-07T09:53:11.380Z,68.90
2017-11-07T09:55:39.554Z,67.10
2017-11-07T09:58:07.708Z,67.30
2017-11-07T10:00:35.863Z,67.10
2017-11-07T10:03:04.788Z,65.40
2017-11-07T10:05:32.951Z,65.40
2017-11-07T10:08:01.920Z,64.20
2017-11-07T10:10:30.871Z,62.30
2017-11-07T10:12:59.020Z,62.10
2017-11-07T10:15:27.169Z,58.90
2017-11-07T10:17:55.370Z,60.70
2017-11-07T10:20:23.521Z,57.30
2017-11-07T10:22:51.736Z,54.50
2017-11-07T10:25:19.884Z,54.80
2017-11-07T10:27:48.056Z,52.30
2017-11-07T10:30:16.727Z,52.80
2017-11-07T10:32:44.886Z,52.00
2017-11-07T10:35:14.712Z,49.70
2017-11-07T10:37:42.872Z,49.70
2017-11-07T10:40:11.009Z,48.80
2017-11-07T10:42:39.177Z,48.90
2017-11-07T10:45:07.320Z,48.30
2017-11-07T10:47:35.481Z,47.50
2017-11-07T10:50:03.622Z,46.60
2017-11-07T10:52:32.590Z,47.90
2017-11-07T10:55:00.831Z,47.80
2017-11-07T10:57:29.013Z,48.60
2017-11-07T10:59:58.107Z,48.80
2017-11-07T11:02:26.251Z,49.60
2017-11-07T11:04:54.414Z,50.40
2017-11-07T11:07:22.558Z,53.10
2017-11-07T11:09:50.722Z,52.50
2017-11-07T11:12:18.877Z,52.90
2017-11-07T11:14:47.048Z,53.50
2017-11-07T11:17:15.196Z,54.40
2017-11-07T11:19:43.378Z,54.60
2017-11-07T11:22:12.038Z,55.10
2017-11-07T11:24:40.243Z,55.00
2017-11-07T11:27:08.395Z,54.80
2017-11-07T11:29:36.591Z,56.00
2017-11-07T11:32:04.763Z,56.00
2017-11-07T11:34:33.013Z,56.30
2017-11-07T11:37:01.176Z,56.50
2017-11-07T11:39:29.382Z,56.50
2017-11-07T11:41:57.543Z,55.90
2017-11-07T11:44:25.712Z,54.90
2017-11-07T11:46:53.882Z,54.80
2017-11-07T11:49:22.035Z,55.50
2017-11-07T11:51:50.231Z,55.40
2017-11-07T11:54:18.474Z,55.00
2017-11-07T11:56:47.404Z,55.60
2017-11-07T11:59:15.551Z,55.60
2017-11-07T12:01:43.715Z,56.00
2017-11-07T12:04:11.866Z,54.80
2017-11-07T12:06:40.030Z,54.90
2017-11-07T12:09:08.855Z,54.80
2017-11-07T12:11:37.033Z,54.80
2017-11-07T12:14:05.230Z,54.80
2017-11-07T12:16:33.444Z,55.00
2017-11-07T12:19:01.681Z,54.40
2017-11-07T12:21:29.826Z,53.60
2017-11-07T12:23:57.995Z,53.80
2017-11-07T12:26:26.145Z,53.40
2017-11-07T12:28:55.087Z,50.90
2017-11-07T12:31:23.246Z,50.80
2017-11-07T12:33:51.963Z,49.50
2017-11-07T12:36:20.135Z,48.60
2017-11-07T12:38:48.303Z,48.10
2017-11-07T12:41:16.462Z,47.20
2017-11-07T12:43:44.738Z,47.50
2017-11-07T12:46:12.887Z,47.60
2017-11-07T12:48:41.047Z,47.50
2017-11-07T12:54:32.411Z,48.30
2017-11-07T12:57:00.600Z,48.30
2017-11-07T12:59:28.875Z,48.40
2017-11-07T13:01:57.031Z,49.30
2017-11-07T13:04:25.196Z,50.20
2017-11-07T13:06:53.562Z,50.70
2017-11-07T13:09:21.723Z,51.60
2017-11-07T13:11:50.747Z,53.20
2017-11-07T13:14:18.944Z,53.30
2017-11-07T13:16:47.099Z,53.60
2017-11-07T13:19:15.276Z,54.60
2017-11-07T13:21:43.440Z,54.90
2017-11-07T13:24:11.595Z,55.30
2017-11-07T13:26:39.749Z,56.30
2017-11-07T13:29:08.692Z,60.10
2017-11-07T13:31:37.165Z,58.80
2017-11-07T13:34:05.800Z,59.20
2017-11-07T13:36:34.709Z,60.30
2017-11-07T13:39:03.726Z,60.30
2017-11-07T13:41:31.885Z,60.00
2017-11-07T13:44:00.050Z,60.80
2017-11-07T13:46:28.230Z,61.20
2017-11-07T13:48:56.386Z,61.50
2017-11-07T13:51:24.559Z,61.80
2017-11-07T13:53:53.165Z,61.70
2017-11-07T13:56:21.330Z,61.50
2017-11-07T13:58:50.296Z,61.70
2017-11-07T14:01:19.238Z,62.40
2017-11-07T14:03:47.413Z,62.40
2017-11-07T14:06:15.671Z,62.90
2017-11-07T14:08:43.818Z,63.20
2017-11-07T14:11:12.209Z,64.00
2017-11-07T14:13:40.359Z,64.30
2017-11-07T14:16:09.292Z,66.00
2017-11-07T14:18:37.452Z,66.00
2017-11-07T14:21:05.643Z,65.80
2017-11-07T14:23:33.787Z,65.70
2017-11-07T14:26:01.961Z,65.70
2017-11-07T14:28:30.114Z,65.70
2017-11-07T14:30:59.074Z,66.50
2017-11-07T14:33:27.346Z,66.50
2017-11-07T14:35:55.499Z,67.10
2017-11-07T14:38:23.769Z,67.40
2017-11-07T14:40:51.931Z,68.10
2017-11-07T14:43:20.174Z,68.70
2017-11-07T14:45:49.102Z,69.30
2017-11-07T14:48:17.274Z,69.20
2017-11-07T14:50:45.414Z,69.40
2017-11-07T14:53:14.353Z,70.00
2017-11-07T14:55:42.523Z,69.90
2017-11-07T14:58:10.688Z,70.30
2017-11-07T15:00:38.851Z,71.20
2017-11-07T15:03:07.037Z,71.50
2017-11-07T15:05:35.182Z,71.60
2017-11-07T15:08:03.358Z,71.30
2017-11-07T15:10:31.492Z,71.70
2017-11-07T15:12:59.727Z,71.80
2017-11-07T15:15:27.893Z,71.90
2017-11-07T15:17:56.090Z,72.20
2017-11-07T15:20:24.254Z,72.90
2017-11-07T15:22:52.404Z,73.00
2017-11-07T15:25:20.590Z,73.00
2017-11-07T15:27:48.756Z,73.40
2017-11-07T15:30:16.919Z,73.60
2017-11-07T15:32:45.087Z,73.90
2017-11-07T15:35:13.271Z,73.90
2017-11-07T15:37:41.414Z,73.90
2017-11-07T15:40:09.951Z,74.30
2017-11-07T15:42:38.118Z,74.60
2017-11-07T15:45:06.289Z,74.60
2017-11-07T15:47:34.463Z,74.40
2017-11-07T15:50:02.722Z,75.10
2017-11-07T15:52:30.866Z,75.10
2017-11-07T15:54:59.055Z,74.90
2017-11-07T15:57:27.206Z,75.00
2017-11-07T15:59:56.115Z,75.30
2017-11-07T16:02:24.271Z,75.30
2017-11-07T16:04:52.946Z,75.10
2017-11-07T16:07:21.140Z,75.20
2017-11-07T16:09:49.333Z,75.50
2017-11-07T16:12:17.498Z,75.60
2017-11-07T16:14:45.677Z,75.70
2017-11-07T16:17:13.831Z,75.80
2017-11-07T16:19:41.975Z,75.80
2017-11-07T16:22:10.901Z,76.00
2017-11-07T16:24:39.063Z,76.10
2017-11-07T16:27:07.859Z,76.60
2017-11-07T16:29:36.009Z,75.90
2017-11-07T16:32:05.142Z,75.70
2017-11-07T16:34:33.292Z,75.70
2017-11-07T16:37:01.446Z,75.90
2017-11-07T16:39:30.356Z,76.30
2017-11-07T16:41:58.507Z,76.40
2017-11-07T16:44:27.447Z,76.60
2017-11-07T16:46:55.702Z,76.60
2017-11-07T16:49:23.871Z,76.70
2017-11-07T16:51:52.016Z,76.70
2017-11-07T16:54:20.947Z,76.70
2017-11-07T16:56:49.116Z,76.70
2017-11-07T16:59:17.296Z,76.70
2017-11-07T17:01:45.522Z,76.60
2017-11-07T17:04:14.456Z,76.70
2017-11-07T17:06:42.600Z,76.70
2017-11-07T17:09:11.544Z,76.70
2017-11-07T17:11:40.139Z,76.70
2017-11-07T17:14:08.320Z,76.70
2017-11-07T17:16:36.836Z,76.70
2017-11-07T17:19:05.043Z,76.70
2017-11-07T17:21:33.190Z,76.70
2017-11-07T17:24:01.363Z,76.70
2017-11-07T17:26:29.515Z,76.70
2017-11-07T17:28:58.982Z,76.70
2017-11-07T17:31:27.143Z,76.70
2017-11-07T17:33:55.283Z,76.70
2017-11-07T17:36:23.731Z,76.70
2017-11-07T17:38:52.680Z,76.70
2017-11-07T17:41:21.675Z,76.70
2017-11-07T17:43:49.848Z,76.70
2017-11-07T17:46:18.026Z,76.70
2017-11-07T17:48:46.166Z,76.70
2017-11-07T17:51:14.475Z,76.70
2017-11-07T17:53:42.613Z,76.70
2017-11-07T17:56:10.799Z,76.70
2017-11-07T17:58:38.952Z,76.70
2017-11-07T18:01:07.121Z,76.70
2017-11-07T18:03:35.574Z,76.70
2017-11-07T18:06:03.804Z,76.70
2017-11-07T18:08:31.954Z,76.70
2017-11-07T18:11:00.100Z,76.70
2017-11-07T18:13:29.679Z,77.50
2017-11-07T18:15:57.825Z,77.50
2017-11-07T18:18:26.002Z,77.60
2017-11-07T18:20:54.175Z,77.50
2017-11-07T18:23:22.358Z,77.70
2017-11-07T18:25:50.516Z,77.80
2017-11-07T18:28:18.679Z,77.70
2017-11-07T18:30:46.834Z,77.80
2017-11-07T18:33:15.020Z,78.10
2017-11-07T18:35:43.176Z,79.10
2017-11-07T18:38:11.382Z,77.90
2017-11-07T18:40:39.526Z,77.80
2017-11-07T18:43:07.753Z,77.80
2017-11-07T18:45:35.902Z,77.80
2017-11-07T18:48:04.058Z,77.70
2017-11-07T18:50:32.242Z,77.90
2017-11-07T18:53:00.427Z,78.10
2017-11-07T18:55:28.643Z,78.20
2017-11-07T18:57:57.579Z,78.40
2017-11-07T19:00:25.747Z,78.40
2017-11-07T19:02:54.093Z,78.50
2017-11-07T19:05:23.035Z,78.50
2017-11-07T19:07:51.203Z,78.30
2017-11-07T19:10:19.382Z,78.40
2017-11-07T19:12:47.543Z,78.50
2017-11-07T19:15:16.026Z,78.60
2017-11-07T19:17:44.199Z,79.00
2017-11-07T19:20:12.380Z,79.10
2017-11-07T19:22:40.558Z,79.20
2017-11-07T19:25:08.768Z,79.30
2017-11-07T19:27:37.712Z,79.50
2017-11-07T19:30:05.865Z,79.50
2017-11-07T19:32:34.037Z,79.70
2017-11-07T19:35:02.201Z,79.70
2017-11-07T19:37:30.381Z,79.70
2017-11-07T19:39:58.531Z,79.70
2017-11-07T19:42:27.481Z,79.90
2017-11-07T19:44:55.627Z,79.80
2017-11-07T19:47:23.812Z,79.90
2017-11-07T19:49:51.969Z,80.00
2017-11-07T19:52:20.149Z,79.90
2017-11-07T19:54:48.309Z,79.90
2017-11-07T19:57:16.492Z,80.00
2017-11-07T19:59:44.653Z,80.40
2017-11-07T20:02:13.059Z,80.50
2017-11-07T20:04:41.228Z,80.70
2017-11-07T20:07:09.424Z,80.70
2017-11-07T20:09:37.675Z,80.70
2017-11-07T20:12:05.852Z,80.70
2017-11-07T20:14:34.045Z,80.80
2017-11-07T20:17:02.235Z,80.90
2017-11-07T20:19:30.417Z,80.80
2017-11-07T20:21:59.357Z,81.30
2017-11-07T20:24:27.531Z,81.20
2017-11-07T20:26:55.810Z,81.20
2017-11-07T20:29:23.993Z,81.50
2017-11-07T20:31:52.153Z,81.50
2017-11-07T20:34:20.354Z,81.60
2017-11-07T20:36:48.507Z,81.50
2017-11-07T20:39:16.675Z,81.70
2017-11-07T20:41:44.830Z,81.70
2017-11-07T20:44:13.015Z,81.80
2017-11-07T20:46:41.692Z,81.80
2017-11-07T20:49:09.850Z,81.60
2017-11-07T20:51:38.007Z,81.60
2017-11-07T20:54:06.170Z,82.60
2017-11-07T20:56:35.107Z,81.90
2017-11-07T20:59:03.275Z,81.80
2017-11-07T21:01:31.444Z,81.60
2017-11-07T21:03:59.652Z,81.60
2017-11-07T21:06:27.902Z,81.60
2017-11-07T21:08:56.064Z,81.80
2017-11-07T21:11:24.243Z,82.10
2017-11-07T21:13:52.422Z,82.20
2017-11-07T21:16:20.590Z,82.20
2017-11-07T21:18:51.798Z,82.40
2017-11-07T21:21:20.731Z,82.70
2017-11-07T21:23:49.212Z,82.70
2017-11-07T21:26:17.480Z,82.70
2017-11-07T21:28:45.622Z,82.90
2017-11-07T21:31:13.822Z,83.70
2017-11-07T21:33:41.971Z,82.80
2017-11-07T21:36:10.223Z,82.80
2017-11-07T21:38:39.135Z,83.10
2017-11-07T21:41:07.331Z,83.10
2017-11-07T21:43:36.255Z,83.20
2017-11-07T21:46:04.415Z,83.40
2017-11-07T21:48:32.689Z,83.40
2017-11-07T21:51:00.835Z,83.60
2017-11-07T21:53:28.998Z,83.70
2017-11-07T21:55:57.161Z,83.90
2017-11-07T21:58:25.348Z,84.00
2017-11-07T22:00:53.518Z,84.10
2017-11-07T22:03:21.682Z,84.20
2017-11-07T22:05:49.842Z,84.00
2017-11-07T22:08:18.849Z,83.90
2017-11-07T22:10:47.056Z,83.90
2017-11-07T22:13:15.218Z,84.00
2017-11-07T22:15:43.371Z,84.10
2017-11-07T22:18:11.526Z,84.00
2017-11-07T22:20:40.526Z,84.00
2017-11-07T22:23:27.375Z,84.00
2017-11-07T22:25:55.539Z,84.00
2017-11-07T22:28:23.710Z,84.30
2017-11-07T22:30:51.870Z,84.40
2017-11-07T22:33:20.307Z,84.50
2017-11-07T22:35:48.625Z,84.40
2017-11-07T22:38:16.785Z,84.70
2017-11-07T22:40:45.566Z,84.50
2017-11-07T22:43:14.490Z,84.70
2017-11-07T22:45:42.685Z,84.80
2017-11-07T22:48:10.909Z,84.90
2017-11-07T22:50:39.838Z,85.10
2017-11-07T22:53:08.711Z,85.00
2017-11-07T22:55:36.887Z,85.10
2017-11-07T22:58:05.034Z,85.10
2017-11-07T23:00:33.704Z,85.30
2017-11-07T23:03:02.639Z,86.30
2017-11-07T23:05:30.811Z,86.30
2017-11-07T23:07:59.018Z,86.30
2017-11-07T23:10:27.803Z,87.50
2017-11-07T23:12:58.425Z,87.50
2017-11-07T23:15:26.946Z,87.50
2017-11-07T23:17:55.928Z,88.10
2017-11-07T23:20:24.870Z,88.30
2017-11-07T23:22:53.119Z,88.30
2017-11-07T23:25:21.354Z,88.80
2017-11-07T23:27:49.803Z,89.90
2017-11-07T23:30:17.955Z,90.10
2017-11-07T23:32:46.118Z,90.30
2017-11-07T23:35:14.271Z,90.50
2017-11-07T23:37:43.199Z,90.50
2017-11-07T23:40:11.575Z,90.50
2017-11-07T23:42:39.854Z,90.40
2017-11-07T23:45:07.983Z,90.40
2017-11-07T23:47:37.424Z,90.40
2017-11-07T23:50:06.177Z,90.40
2017-11-07T23:52:35.082Z,90.50
2017-11-07T23:55:03.687Z,90.50
2017-11-07T23:57:31.865Z,90.70
